Time;durP1;ratioP1;P1;durP2;ratioP2;P2;SDS_P1;SDS_P2;PMS_P1;PMS_P2;Temp;Humidity;BMP_temperature;BMP_pressure;BME280_temperature;BME280_humidity;BME280_pressure;Samples;Min_cycle;Max_cycle;Signal;HPM_P1;HPM_P2
2023/11/13 00:10:13;;;;;;;;;;;;;;;5.12;85.40;97291.13;5087561;28;19931;-69
2023/11/13 00:12:39;;;;;;;;;;;;;;;5.02;84.93;97300.84;5087969;28;19962;-69
2023/11/13 00:15:24;;;;;;;;;;;;;;;4.93;85.27;97290.78;5126176;27;19930;-68
2023/11/13 00:23:38;;;;;;;;;;;;;;;4.75;84.72;97295.50;5090685;28;19928;-69
2023/11/13 00:26:05;;;;;;;;;;;;;;;4.64;84.96;97312.97;5057478;28;20444;-68
2023/11/13 00:28:49;;;;;;;;;;;;;;;4.56;84.77;97295.16;5098238;28;20327;-68
2023/11/13 00:31:33;;;;;;;;;;;;;;;4.53;85.26;97302.94;5092626;28;20018;-68
2023/11/13 00:37:21;;;;;;;;;;;;;;;4.53;84.47;97301.19;5092480;28;19930;-67
2023/11/13 00:40:06;;;;;;;;;;;;;;;4.56;85.19;97305.44;5104967;27;19970;-66
2023/11/13 00:45:35;;;;;;;;;;;;;;;4.62;85.32;97309.59;5092442;28;19973;-67
2023/11/13 00:50:45;;;;;;;;;;;;;;;4.69;85.68;97308.56;5090803;28;19924;-67
2023/11/13 00:53:36;;;;;;;;;;;;;;;4.74;85.00;97309.31;5096916;28;19919;-68
2023/11/13 00:56:05;;;;;;;;;;;;;;;4.77;85.81;97316.94;5078891;28;19956;-68
2023/11/13 00:58:34;;;;;;;;;;;;;;;4.66;85.32;97291.44;5091171;28;19954;-67
2023/11/13 01:01:18;;;;;;;;;;;;;;;4.79;85.32;97314.34;5079895;28;19920;-67
2023/11/13 01:07:06;;;;;;;;;;;;;;;4.78;85.34;97318.63;5089918;28;19943;-67
2023/11/13 01:09:51;;;;;;;;;;;;;;;4.80;84.84;97316.03;5091523;28;19928;-68
2023/11/13 01:12:54;;;;;;;;;;;;;;;4.78;85.41;97325.53;5097215;28;20289;-67
2023/11/13 01:15:57;;;;;;;;;;;;;;;4.85;85.30;97321.91;5114106;27;19931;-68
2023/11/13 01:18:41;;;;;;;;;;;;;;;4.86;85.66;97320.16;5090962;28;20321;-67
2023/11/13 01:21:07;;;;;;;;;;;;;;;4.85;85.35;97327.06;5073841;28;19924;-67
2023/11/13 01:26:17;;;;;;;;;;;;;;;4.80;85.20;97324.59;5094335;28;19924;-67
2023/11/13 01:29:20;;;;;;;;;;;;;;;4.77;85.51;97321.25;5062369;28;20047;-67
2023/11/13 01:32:05;;;;;;;;;;;;;;;4.80;85.15;97326.34;5091927;28;19920;-67
2023/11/13 01:35:08;;;;;;;;;;;;;;;4.83;85.59;97324.50;5091557;28;19933;-66
2023/11/13 01:37:34;;;;;;;;;;;;;;;4.81;84.73;97341.75;5091640;28;19920;-66
2023/11/13 01:40:00;;;;;;;;;;;;;;;4.77;85.03;97334.97;5091800;28;19927;-67
2023/11/13 01:45:49;;;;;;;;;;;;;;;4.74;84.96;97344.50;5075913;28;19931;-67
2023/11/13 01:48:34;;;;;;;;;;;;;;;4.77;85.36;97347.84;5092154;28;20064;-67
2023/11/13 01:51:37;;;;;;;;;;;;;;;4.71;84.77;97350.59;5090206;28;20011;-67
2023/11/13 01:54:42;;;;;;;;;;;;;;;4.66;85.27;97357.59;5076033;28;21380;-69
2023/11/13 02:00:32;;;;;;;;;;;;;;;4.47;84.83;97365.75;5128044;27;20008;-67
2023/11/13 02:06:20;;;;;;;;;;;;;;;4.43;85.37;97374.44;5107381;27;20568;-68
2023/11/13 02:09:08;;;;;;;;;;;;;;;4.42;85.47;97372.72;5040148;28;20032;-68
2023/11/13 02:14:37;;;;;;;;;;;;;;;4.40;84.73;97377.06;5091453;28;20322;-69
2023/11/13 02:17:05;;;;;;;;;;;;;;;4.35;84.74;97377.19;5090775;28;19959;-68
2023/11/13 02:19:49;;;;;;;;;;;;;;;4.31;84.70;97382.41;5090656;28;19942;-69
2023/11/13 02:25:18;;;;;;;;;;;;;;;4.25;84.70;97377.41;5073278;28;19959;-68
2023/11/13 02:27:44;;;;;;;;;;;;;;;4.27;84.96;97373.09;5072244;28;20262;-67
2023/11/13 02:30:10;;;;;;;;;;;;;;;4.30;84.79;97381.56;5077003;28;20081;-69
2023/11/13 02:32:55;;;;;;;;;;;;;;;4.33;85.21;97380.66;5089830;28;20377;-65
2023/11/13 02:39:01;;;;;;;;;;;;;;;4.33;84.59;97380.66;5071853;28;19920;-68
2023/11/13 02:41:26;;;;;;;;;;;;;;;4.30;84.72;97385.91;5088859;28;20073;-68
2023/11/13 02:43:53;;;;;;;;;;;;;;;4.24;84.32;97388.59;5089277;28;20765;-68
2023/11/13 02:46:37;;;;;;;;;;;;;;;4.25;85.26;97395.44;5089638;28;20435;-69
2023/11/13 02:49:03;;;;;;;;;;;;;;;4.27;84.74;97389.38;5071859;28;19931;-69
2023/11/13 02:51:29;;;;;;;;;;;;;;;4.27;85.10;97402.25;5090317;28;19919;-68
2023/11/13 02:53:55;;;;;;;;;;;;;;;4.26;84.56;97407.44;5073327;28;19945;-67
2023/11/13 03:04:52;;;;;;;;;;;;;;;4.19;84.64;97409.31;5089221;28;19931;-67
2023/11/13 03:07:18;;;;;;;;;;;;;;;4.13;84.84;97406.84;5111160;27;19924;-69
2023/11/13 03:09:44;;;;;;;;;;;;;;;4.10;85.11;97409.47;5090424;28;19947;-69
2023/11/13 03:12:10;;;;;;;;;;;;;;;4.09;84.59;97424.06;5076211;28;19926;-70
2023/11/13 03:14:54;;;;;;;;;;;;;;;4.07;84.97;97421.53;5073476;28;20361;-68
2023/11/13 03:17:39;;;;;;;;;;;;;;;4.06;84.81;97426.72;5091377;28;19919;-67
2023/11/13 03:20:06;;;;;;;;;;;;;;;4.08;85.07;97424.97;5126604;27;19947;-68
2023/11/13 03:22:50;;;;;;;;;;;;;;;4.10;84.26;97437.78;5092443;28;19920;-67
2023/11/13 03:25:35;;;;;;;;;;;;;;;4.15;84.63;97431.66;5090415;28;19920;-67
2023/11/13 03:28:00;;;;;;;;;;;;;;;4.15;84.46;97433.41;5090368;28;20013;-67
2023/11/13 03:30:27;;;;;;;;;;;;;;;4.15;84.65;97436.81;5058270;28;19920;-68
2023/11/13 03:33:12;;;;;;;;;;;;;;;4.11;84.53;97437.75;5076073;28;20446;-67
2023/11/13 03:35:38;;;;;;;;;;;;;;;4.10;84.87;97441.19;5073181;28;19942;-66
2023/11/13 03:41:25;;;;;;;;;;;;;;;4.11;84.55;97436.91;5090567;28;19924;-69
2023/11/13 03:43:51;;;;;;;;;;;;;;;4.11;84.41;97437.75;5089920;28;19919;-69
2023/11/13 03:46:37;;;;;;;;;;;;;;;4.11;84.28;97442.91;5123736;27;19927;-68
2023/11/13 03:49:03;;;;;;;;;;;;;;;4.12;84.89;97436.88;5073355;28;20010;-69
2023/11/13 03:51:29;;;;;;;;;;;;;;;4.10;84.40;97440.38;5072381;28;20014;-68
2023/11/13 03:53:55;;;;;;;;;;;;;;;4.10;84.36;97436.06;5070283;28;19920;-69
2023/11/13 03:56:40;;;;;;;;;;;;;;;4.11;84.83;97448.03;5090884;28;19920;-69
2023/11/13 04:02:47;;;;;;;;;;;;;;;4.16;84.78;97451.38;5092880;28;19927;-68
2023/11/13 04:05:31;;;;;;;;;;;;;;;4.19;84.49;97446.19;5095498;28;20293;-69
2023/11/13 04:08:16;;;;;;;;;;;;;;;4.14;84.27;97450.56;5083890;28;19967;-67
2023/11/13 04:13:45;;;;;;;;;;;;;;;4.17;84.20;97459.97;5076898;28;20317;-68
2023/11/13 04:16:30;;;;;;;;;;;;;;;4.19;84.80;97471.91;5072621;28;20019;-68
2023/11/13 04:18:55;;;;;;;;;;;;;;;4.20;83.79;97477.91;5129633;27;20069;-66
2023/11/13 04:30:12;;;;;;;;;;;;;;;4.11;84.42;97486.66;5091502;28;19977;-69
2023/11/13 04:38:25;;;;;;;;;;;;;;;4.03;84.34;97491.97;5090570;28;19930;-69
2023/11/13 04:47:34;;;;;;;;;;;;;;;3.99;84.95;97508.31;5085171;28;19988;-66
2023/11/13 04:50:19;;;;;;;;;;;;;;;3.96;84.22;97507.56;5107669;27;19920;-67
2023/11/13 04:55:30;;;;;;;;;;;;;;;3.93;84.99;97516.19;5095639;28;20443;-67
2023/11/13 04:58:15;;;;;;;;;;;;;;;3.90;84.71;97526.53;5090592;28;20256;-68
2023/11/13 05:07:06;;;;;;;;;;;;;;;3.92;85.01;97524.78;5092258;28;19931;-69
2023/11/13 05:09:31;;;;;;;;;;;;;;;3.92;84.42;97528.19;5073557;28;19923;-68
2023/11/13 05:12:15;;;;;;;;;;;;;;;3.97;84.73;97524.69;5094271;28;20000;-68
2023/11/13 05:14:41;;;;;;;;;;;;;;;4.00;84.90;97537.50;5090863;28;19924;-69
2023/11/13 05:17:26;;;;;;;;;;;;;;;4.04;85.05;97536.56;5090879;28;20074;-69
2023/11/13 05:19:52;;;;;;;;;;;;;;;4.09;85.42;97536.47;5095670;28;19920;-68
2023/11/13 05:22:18;;;;;;;;;;;;;;;4.11;84.48;97534.72;5091758;28;19924;-68
2023/11/13 05:24:44;;;;;;;;;;;;;;;4.14;85.14;97540.66;5092731;28;20477;-67
2023/11/13 05:27:10;;;;;;;;;;;;;;;4.14;84.39;97540.66;5090715;28;19919;-67
2023/11/13 05:32:38;;;;;;;;;;;;;;;4.19;84.82;97549.16;5093966;28;20313;-66
2023/11/13 05:35:23;;;;;;;;;;;;;;;4.21;84.65;97556.84;5073997;28;19927;-69
2023/11/13 05:44:35;;;;;;;;;;;;;;;4.24;84.91;97558.50;5089918;28;19920;-67
2023/11/13 05:50:08;;;;;;;;;;;;;;;4.31;84.82;97563.50;5127187;27;19932;-71
2023/11/13 05:52:34;;;;;;;;;;;;;;;4.35;84.51;97584.88;5091795;28;19996;-70
2023/11/13 05:54:59;;;;;;;;;;;;;;;4.31;84.82;97578.09;5076249;28;19924;-70
2023/11/13 05:57:25;;;;;;;;;;;;;;;4.34;84.24;97578.91;5089320;28;19923;-69
2023/11/13 06:03:31;;;;;;;;;;;;;;;4.42;84.53;97591.63;5089851;28;19930;-70
2023/11/13 06:09:00;;;;;;;;;;;;;;;4.46;85.18;97597.56;5096810;28;19927;-68
2023/11/13 06:12:04;;;;;;;;;;;;;;;4.29;84.64;97575.56;5091429;28;20557;-70
2023/11/13 06:14:31;;;;;;;;;;;;;;;4.45;84.48;97601.00;5089922;28;19926;-68
2023/11/13 06:16:57;;;;;;;;;;;;;;;4.37;84.33;97614.91;5090853;28;20035;-70
2023/11/13 06:31:23;;;;;;;;;;;;;;;4.31;84.06;97643.34;5092867;28;20575;-71
2023/11/13 06:34:08;;;;;;;;;;;;;;;4.31;84.45;97663.06;5092012;28;19972;-69
2023/11/13 06:36:34;;;;;;;;;;;;;;;4.30;84.32;97669.97;5075873;28;20514;-69
2023/11/13 06:39:18;;;;;;;;;;;;;;;4.29;84.34;97672.56;5090623;28;19920;-69
2023/11/13 06:41:48;;;;;;;;;;;;;;;4.32;84.71;97685.38;5089878;28;19931;-69
2023/11/13 06:44:14;;;;;;;;;;;;;;;4.31;84.40;97687.13;5089189;28;19930;-68
2023/11/13 06:46:41;;;;;;;;;;;;;;;4.22;84.71;97697.56;5107334;27;19920;-70
2023/11/13 06:51:54;;;;;;;;;;;;;;;4.01;84.57;97706.50;5090198;28;20586;-70
2023/11/13 06:57:59;;;;;;;;;;;;;;;3.71;84.19;97718.94;5090905;28;19959;-72
2023/11/13 07:03:46;;;;;;;;;;;;;;;3.68;84.62;97718.97;5089536;28;20432;-74
2023/11/13 07:06:31;;;;;;;;;;;;;;;3.59;84.06;97720.81;5091841;28;19927;-71
2023/11/13 07:08:58;;;;;;;;;;;;;;;3.59;84.42;97737.97;5072549;28;19927;-74
2023/11/13 07:20:54;;;;;;;;;;;;;;;3.38;84.38;97767.41;5089721;28;19924;-69
2023/11/13 07:23:20;;;;;;;;;;;;;;;3.32;83.91;97773.44;5090204;28;20374;-69
2023/11/13 07:25:46;;;;;;;;;;;;;;;3.34;84.34;97783.72;5090513;28;19938;-66
2023/11/13 07:31:15;;;;;;;;;;;;;;;3.30;84.70;97785.50;5088633;28;19924;-67
2023/11/13 07:39:48;;;;;;;;;;;;;;;3.28;84.54;97812.94;5091418;28;19978;-69
2023/11/13 07:42:51;;;;;;;;;;;;;;;3.33;84.05;97823.16;5087261;28;20020;-64
2023/11/13 07:45:18;;;;;;;;;;;;;;;3.27;84.55;97835.22;5084850;28;19943;-65
2023/11/13 07:48:04;;;;;;;;;;;;;;;3.23;83.91;97820.69;5086228;28;19931;-66
2023/11/13 07:51:06;;;;;;;;;;;;;;;3.20;84.17;97835.28;5087421;28;19920;-66
2023/11/13 07:57:13;;;;;;;;;;;;;;;3.16;84.19;97826.78;5123752;27;19931;-66
2023/11/13 07:59:40;;;;;;;;;;;;;;;3.14;84.41;97852.47;5095219;28;19931;-66
2023/11/13 08:02:09;;;;;;;;;;;;;;;3.14;84.47;97852.47;5087832;28;20297;-67
2023/11/13 08:11:19;;;;;;;;;;;;;;;3.18;84.07;97850.75;5089023;28;19977;-76
2023/11/13 08:17:25;;;;;;;;;;;;;;;3.13;83.51;97861.06;5092441;28;19934;-72
2023/11/13 08:19:51;;;;;;;;;;;;;;;3.15;84.52;97876.47;5083835;28;19979;-69
2023/11/13 08:22:16;;;;;;;;;;;;;;;3.21;84.45;97870.41;5069799;28;20374;-67
2023/11/13 08:24:42;;;;;;;;;;;;;;;3.24;83.53;97872.97;5089586;28;19920;-68
2023/11/13 08:27:08;;;;;;;;;;;;;;;3.27;84.46;97871.19;5086614;28;19973;-68
2023/11/13 08:29:34;;;;;;;;;;;;;;;3.29;83.58;97879.75;5087249;28;19928;-67
2023/11/13 08:32:00;;;;;;;;;;;;;;;3.25;83.33;97880.66;5090486;28;20339;-69
2023/11/13 08:34:26;;;;;;;;;;;;;;;3.27;83.50;97886.63;5091634;28;21284;-68
2023/11/13 08:36:51;;;;;;;;;;;;;;;3.35;84.13;97896.00;5058970;28;20309;-69
2023/11/13 08:39:17;;;;;;;;;;;;;;;3.43;84.49;97894.16;5088993;28;19920;-68
2023/11/13 08:41:43;;;;;;;;;;;;;;;3.48;84.05;97907.84;5089775;28;20301;-69
2023/11/13 08:44:09;;;;;;;;;;;;;;;3.50;83.66;97905.28;5075749;28;19924;-68
2023/11/13 08:46:35;;;;;;;;;;;;;;;3.53;83.82;97915.53;5090132;28;19930;-68
2023/11/13 08:49:04;;;;;;;;;;;;;;;3.46;83.51;97914.72;5092972;28;19939;-69
2023/11/13 08:51:31;;;;;;;;;;;;;;;3.43;83.93;97925.03;5094126;28;19946;-70
2023/11/13 08:53:59;;;;;;;;;;;;;;;3.41;82.95;97930.19;5109272;27;20352;-71
2023/11/13 08:56:26;;;;;;;;;;;;;;;3.44;83.49;97925.03;5075487;28;19937;-74
2023/11/13 08:58:54;;;;;;;;;;;;;;;3.48;83.68;97941.28;5092787;28;20026;-71
2023/11/13 09:01:25;;;;;;;;;;;;;;;3.53;82.91;97926.66;5094259;28;20006;-70
2023/11/13 09:03:54;;;;;;;;;;;;;;;3.54;82.92;97936.06;5079616;28;19924;-70
2023/11/13 09:06:20;;;;;;;;;;;;;;;3.57;82.99;97946.34;5079796;28;19978;-71
2023/11/13 09:08:48;;;;;;;;;;;;;;;3.61;82.81;97950.59;5072981;28;20590;-71
2023/11/13 09:11:16;;;;;;;;;;;;;;;3.62;82.48;97956.56;5094855;28;19932;-72
2023/11/13 09:13:42;;;;;;;;;;;;;;;3.68;82.53;97942.78;5126516;27;19927;-72
2023/11/13 09:16:10;;;;;;;;;;;;;;;3.68;83.26;97948.78;5091044;28;19919;-71
2023/11/13 09:18:36;;;;;;;;;;;;;;;3.68;82.69;97951.38;5088108;28;20000;-73
2023/11/13 09:21:01;;;;;;;;;;;;;;;3.64;82.36;97962.56;5096620;28;20461;-69
2023/11/13 09:23:28;;;;;;;;;;;;;;;3.66;82.66;97960.81;5092021;28;19920;-71
2023/11/13 09:25:54;;;;;;;;;;;;;;;3.67;82.36;97966.81;5091527;28;19920;-71
2023/11/13 09:28:20;;;;;;;;;;;;;;;3.73;82.90;97967.63;5090725;28;19924;-73
2023/11/13 09:30:45;;;;;;;;;;;;;;;3.76;82.52;97977.00;5129532;27;21398;-70
2023/11/13 09:33:11;;;;;;;;;;;;;;;3.74;82.37;97971.91;5093447;28;20380;-70
2023/11/13 09:35:37;;;;;;;;;;;;;;;3.76;82.31;97969.28;5091617;28;20006;-71
2023/11/13 09:38:03;;;;;;;;;;;;;;;3.82;82.44;97973.50;5089795;28;19920;-70
2023/11/13 09:40:31;;;;;;;;;;;;;;;3.89;82.18;97973.44;5091170;28;20038;-70
2023/11/13 09:43:06;;;;;;;;;;;;;;;3.89;81.97;97972.59;5109950;27;19966;-70
2023/11/13 09:45:32;;;;;;;;;;;;;;;3.87;81.68;97979.47;5089996;28;19919;-69
2023/11/13 09:47:59;;;;;;;;;;;;;;;3.86;81.63;97976.03;5088676;28;19928;-69
2023/11/13 09:50:25;;;;;;;;;;;;;;;3.84;82.04;97982.94;5072268;28;20571;-73
2023/11/13 09:52:56;;;;;;;;;;;;;;;3.81;81.78;97989.81;5092085;28;20369;-72
2023/11/13 09:55:23;;;;;;;;;;;;;;;3.76;81.37;97995.03;5125503;27;20480;-71
2023/11/13 09:57:53;;;;;;;;;;;;;;;3.74;81.42;97994.19;5108760;27;20062;-72
2023/11/13 10:00:24;;;;;;;;;;;;;;;3.79;81.96;97992.41;5093091;28;19924;-74
2023/11/13 10:02:51;;;;;;;;;;;;;;;3.77;81.36;97995.00;5092111;28;19931;-73
2023/11/13 10:05:18;;;;;;;;;;;;;;;3.57;81.59;97948.03;5094578;28;19995;-77
2023/11/13 10:07:48;;;;;;;;;;;;;;;3.79;81.31;97992.41;5075424;28;19920;-74
2023/11/13 10:10:19;;;;;;;;;;;;;;;3.84;80.95;97997.50;5062875;28;19923;-67
2023/11/13 10:12:45;;;;;;;;;;;;;;;3.88;81.85;98005.19;5067312;28;20014;-66
2023/11/13 10:15:14;;;;;;;;;;;;;;;4.00;81.61;98016.22;5076384;28;19923;-67
2023/11/13 10:17:44;;;;;;;;;;;;;;;4.04;81.05;98012.75;5090799;28;19920;-68
2023/11/13 10:20:11;;;;;;;;;;;;;;;4.04;81.02;98018.75;5074427;28;19923;-67
2023/11/13 10:22:40;;;;;;;;;;;;;;;4.03;81.25;98023.91;5124967;27;19960;-73
2023/11/13 10:25:09;;;;;;;;;;;;;;;4.06;80.97;98021.31;5087525;28;19937;-71
2023/11/13 10:27:35;;;;;;;;;;;;;;;4.08;80.68;98029.88;5053180;28;21216;-72
2023/11/13 10:30:03;;;;;;;;;;;;;;;4.13;80.67;98028.06;5090444;28;20015;-70
2023/11/13 10:32:30;;;;;;;;;;;;;;;4.15;81.02;98034.06;5071338;28;20027;-86
2023/11/13 10:34:56;;;;;;;;;;;;;;;4.14;80.30;98042.66;5060354;28;19920;-69
2023/11/13 10:37:24;;;;;;;;;;;;;;;4.17;80.78;98049.50;5060767;28;20014;-71
2023/11/13 10:39:53;;;;;;;;;;;;;;;4.20;81.12;98042.59;5073295;28;20018;-70
2023/11/13 10:42:23;;;;;;;;;;;;;;;4.21;79.85;98046.88;5090340;28;20073;-70
2023/11/13 10:44:53;;;;;;;;;;;;;;;3.98;80.63;98029.09;5089419;28;19977;-69
2023/11/13 10:47:26;;;;;;;;;;;;;;;4.13;80.19;98045.25;5058013;28;19943;-72
2023/11/13 10:49:53;;;;;;;;;;;;;;;4.15;80.23;98053.81;5090986;28;20030;-69
2023/11/13 10:52:21;;;;;;;;;;;;;;;4.15;80.75;98069.28;5129521;27;19924;-67
2023/11/13 10:54:51;;;;;;;;;;;;;;;4.11;80.51;98052.97;5098263;28;19919;-71
2023/11/13 10:57:20;;;;;;;;;;;;;;;4.05;79.40;98071.09;5063135;28;19919;-69
2023/11/13 10:59:47;;;;;;;;;;;;;;;4.03;80.09;98077.97;5131357;27;19968;-69
2023/11/13 11:02:34;;;;;;;;;;;;;;;4.04;80.10;98067.66;5096711;28;19920;-69
2023/11/13 11:05:02;;;;;;;;;;;;;;;4.06;79.84;98078.78;5086884;28;19982;-70
2023/11/13 11:07:31;;;;;;;;;;;;;;;4.09;78.93;98087.34;5083291;28;19924;-71
2023/11/13 11:10:05;;;;;;;;;;;;;;;4.07;79.74;98082.22;5074738;28;20401;-70
2023/11/13 11:12:35;;;;;;;;;;;;;;;4.11;78.96;98080.47;5091046;28;19920;-68
2023/11/13 11:15:04;;;;;;;;;;;;;;;4.17;79.64;98088.13;5096246;28;19920;-67
2023/11/13 11:17:36;;;;;;;;;;;;;;;4.26;78.82;98093.16;5084040;28;19920;-70
2023/11/13 11:20:08;;;;;;;;;;;;;;;4.25;78.70;98091.47;5092908;28;20064;-70
2023/11/13 11:22:34;;;;;;;;;;;;;;;4.29;78.94;98106.00;5130651;27;19946;-69
2023/11/13 11:25:11;;;;;;;;;;;;;;;4.29;79.18;98106.00;5096594;28;20382;-70
2023/11/13 11:27:41;;;;;;;;;;;;;;;4.27;78.15;98107.75;5081610;28;19927;-68
2023/11/13 11:30:22;;;;;;;;;;;;;;;4.29;78.55;98100.88;5095574;28;19919;-70
2023/11/13 11:32:59;;;;;;;;;;;;;;;4.35;78.55;98116.25;5087211;28;19920;-70
2023/11/13 11:35:29;;;;;;;;;;;;;;;4.39;78.06;98126.53;5110150;28;19926;-70
2023/11/13 11:38:14;;;;;;;;;;;;;;;4.37;78.19;98119.69;5105900;28;19924;-70
2023/11/13 11:40:40;;;;;;;;;;;;;;;4.32;77.41;98125.72;5106760;28;19920;-71
2023/11/13 11:43:07;;;;;;;;;;;;;;;4.34;78.38;98137.72;5099681;28;20447;-72
2023/11/13 11:45:34;;;;;;;;;;;;;;;4.39;78.11;98122.22;5108043;28;19920;-79
2023/11/13 11:48:00;;;;;;;;;;;;;;;4.40;77.70;98144.53;5071677;28;20346;-75
2023/11/13 11:50:27;;;;;;;;;;;;;;;4.40;77.30;98138.53;5076071;28;20019;-70
2023/11/13 11:52:54;;;;;;;;;;;;;;;4.42;77.29;98144.50;5095992;28;19926;-72
2023/11/13 11:55:25;;;;;;;;;;;;;;;4.40;77.43;98147.09;5103202;28;19920;-71
2023/11/13 11:57:52;;;;;;;;;;;;;;;4.44;77.26;98153.94;5111616;27;19919;-71
2023/11/13 12:00:19;;;;;;;;;;;;;;;4.44;77.38;98150.50;5075031;28;19946;-71
2023/11/13 12:02:51;;;;;;;;;;;;;;;4.46;77.15;98161.63;5092327;28;20170;-71
2023/11/13 12:05:17;;;;;;;;;;;;;;;4.46;76.72;98157.34;5094908;28;19939;-70
2023/11/13 12:07:43;;;;;;;;;;;;;;;4.45;76.75;98152.19;5091469;28;19927;-73
2023/11/13 12:10:09;;;;;;;;;;;;;;;4.43;76.61;98159.09;5074196;28;19924;-71
2023/11/13 12:12:41;;;;;;;;;;;;;;;4.45;77.35;98159.94;5108402;27;21375;-69
2023/11/13 12:15:11;;;;;;;;;;;;;;;4.44;76.63;98160.81;5093804;28;20467;-71
2023/11/13 12:17:37;;;;;;;;;;;;;;;4.45;76.71;98167.66;5075082;28;19924;-73
2023/11/13 12:20:06;;;;;;;;;;;;;;;4.42;76.80;98173.72;5094411;28;19919;-70
2023/11/13 12:22:41;;;;;;;;;;;;;;;4.43;76.60;98171.97;5124263;27;19942;-70
2023/11/13 12:25:08;;;;;;;;;;;;;;;4.44;76.50;98174.53;5095313;28;19924;-70
2023/11/13 12:27:35;;;;;;;;;;;;;;;4.46;76.41;98177.97;5079536;28;19931;-73
2023/11/13 12:30:06;;;;;;;;;;;;;;;4.48;76.52;98167.63;5085886;28;20323;-69
2023/11/13 12:32:32;;;;;;;;;;;;;;;4.45;76.22;98176.25;5092398;28;19920;-72
2023/11/13 12:34:59;;;;;;;;;;;;;;;4.46;75.69;98165.09;5076859;28;20382;-72
2023/11/13 12:37:26;;;;;;;;;;;;;;;4.50;76.01;98179.66;5109073;27;20031;-71
2023/11/13 12:40:04;;;;;;;;;;;;;;;4.57;76.45;98179.56;5092675;28;19924;-71
2023/11/13 12:42:31;;;;;;;;;;;;;;;4.57;75.48;98189.88;5115942;27;20014;-71
2023/11/13 12:44:57;;;;;;;;;;;;;;;4.58;75.85;98187.28;5094654;28;20053;-69
2023/11/13 12:47:23;;;;;;;;;;;;;;;4.62;75.87;98190.69;5097817;28;19972;-72
2023/11/13 12:49:50;;;;;;;;;;;;;;;4.64;75.45;98194.94;5111863;27;19935;-76
2023/11/13 12:52:17;;;;;;;;;;;;;;;4.68;76.55;98198.34;5094447;28;19928;-73
2023/11/13 12:54:48;;;;;;;;;;;;;;;4.65;75.80;98196.66;5127943;27;20377;-73
2023/11/13 12:57:16;;;;;;;;;;;;;;;4.68;75.52;98193.19;5092637;28;20408;-74
2023/11/13 12:59:43;;;;;;;;;;;;;;;4.72;75.96;98209.47;5074738;28;19927;-74
2023/11/13 13:02:09;;;;;;;;;;;;;;;4.76;75.99;98214.56;5089246;28;19923;-73
2023/11/13 13:04:36;;;;;;;;;;;;;;;4.79;75.60;98218.84;5096309;28;19943;-72
2023/11/13 13:07:06;;;;;;;;;;;;;;;4.78;75.49;98207.69;5075540;28;19934;-73
2023/11/13 13:09:32;;;;;;;;;;;;;;;4.79;75.47;98211.97;5093082;28;19923;-74
2023/11/13 13:11:59;;;;;;;;;;;;;;;4.78;75.49;98212.84;5073107;28;19974;-69
2023/11/13 13:14:28;;;;;;;;;;;;;;;4.67;75.49;98212.94;5111219;27;19931;-70
2023/11/13 13:16:59;;;;;;;;;;;;;;;4.58;75.22;98212.19;5078447;28;20345;-70
2023/11/13 13:19:36;;;;;;;;;;;;;;;4.50;74.46;98218.28;5092587;28;20327;-73
2023/11/13 13:22:05;;;;;;;;;;;;;;;4.48;74.80;98221.72;5125586;27;20027;-73
2023/11/13 13:24:34;;;;;;;;;;;;;;;4.42;74.43;98227.78;5091944;28;19996;-73
2023/11/13 13:27:00;;;;;;;;;;;;;;;4.36;74.77;98231.28;5091496;28;20010;-73
2023/11/13 13:29:26;;;;;;;;;;;;;;;4.36;74.76;98233.00;5093105;28;19936;-74
2023/11/13 13:31:51;;;;;;;;;;;;;;;4.41;74.43;98233.81;5089689;28;19923;-75
2023/11/13 13:34:18;;;;;;;;;;;;;;;4.47;74.77;98222.59;5074474;28;19920;-77
2023/11/13 13:36:45;;;;;;;;;;;;;;;4.49;74.08;98223.44;5092341;28;19965;-71
2023/11/13 13:39:17;;;;;;;;;;;;;;;4.53;74.11;98236.25;5093003;28;20407;-71
2023/11/13 13:41:43;;;;;;;;;;;;;;;4.53;73.74;98238.84;5073765;28;19920;-70
2023/11/13 13:44:12;;;;;;;;;;;;;;;4.56;73.54;98231.94;5062932;28;19924;-73
2023/11/13 13:46:42;;;;;;;;;;;;;;;4.58;73.63;98232.78;5092946;28;19927;-73
2023/11/13 13:49:10;;;;;;;;;;;;;;;4.56;72.98;98235.41;5093513;28;19975;-72
2023/11/13 13:51:37;;;;;;;;;;;;;;;4.57;73.87;98242.25;5095809;28;19927;-75
2023/11/13 13:54:07;;;;;;;;;;;;;;;4.57;73.55;98241.41;5091555;28;19920;-71
2023/11/13 13:56:38;;;;;;;;;;;;;;;4.59;73.35;98248.25;5092242;28;19949;-73
2023/11/13 13:59:05;;;;;;;;;;;;;;;4.62;73.38;98250.81;5125499;27;19920;-72
2023/11/13 14:01:32;;;;;;;;;;;;;;;4.64;73.03;98246.47;5089159;28;19923;-71
2023/11/13 14:03:58;;;;;;;;;;;;;;;4.67;72.87;98253.34;5074466;28;19924;-72
2023/11/13 14:06:24;;;;;;;;;;;;;;;4.71;72.98;98251.56;5073019;28;20366;-71
2023/11/13 14:08:51;;;;;;;;;;;;;;;4.73;72.88;98252.41;5091570;28;19940;-73
2023/11/13 14:11:21;;;;;;;;;;;;;;;4.74;72.80;98255.00;5090903;28;20030;-70
2023/11/13 14:13:47;;;;;;;;;;;;;;;4.73;71.70;98245.56;5090741;28;19923;-73
2023/11/13 14:16:14;;;;;;;;;;;;;;;4.72;72.50;98261.88;5112383;27;19926;-75
2023/11/13 14:18:40;;;;;;;;;;;;;;;4.74;72.73;98267.88;5090112;28;19966;-71
2023/11/13 14:21:12;;;;;;;;;;;;;;;4.73;72.61;98261.00;5089539;28;19974;-70
2023/11/13 14:23:38;;;;;;;;;;;;;;;4.70;72.11;98265.31;5088886;28;19920;-70
2023/11/13 14:26:04;;;;;;;;;;;;;;;4.65;72.24;98266.22;5090532;28;19934;-74
2023/11/13 14:28:33;;;;;;;;;;;;;;;4.63;72.23;98277.41;5088350;28;19924;-72
2023/11/13 14:30:59;;;;;;;;;;;;;;;4.66;72.79;98279.97;5110441;27;20046;-72
2023/11/13 14:33:25;;;;;;;;;;;;;;;4.67;72.26;98271.38;5082725;28;19926;-70
2023/11/13 14:35:50;;;;;;;;;;;;;;;4.65;72.71;98281.69;5089310;28;19967;-72
2023/11/13 14:38:16;;;;;;;;;;;;;;;4.63;72.39;98285.16;5073450;28;20380;-70
2023/11/13 14:40:42;;;;;;;;;;;;;;;4.59;72.26;98283.47;5108049;27;20009;-72
2023/11/13 14:43:08;;;;;;;;;;;;;;;4.62;72.58;98284.31;5087690;28;20283;-70
2023/11/13 14:45:34;;;;;;;;;;;;;;;4.56;71.95;98281.78;5091113;28;19920;-70
2023/11/13 14:47:59;;;;;;;;;;;;;;;4.48;72.90;98287.00;5105084;27;19927;-73
2023/11/13 14:50:25;;;;;;;;;;;;;;;4.40;72.48;98286.19;5089986;28;20448;-75
2023/11/13 14:52:52;;;;;;;;;;;;;;;4.28;72.83;98288.88;5125004;27;19931;-72
2023/11/13 14:55:18;;;;;;;;;;;;;;;4.17;72.36;98282.06;5090404;28;20033;-72
2023/11/13 14:57:45;;;;;;;;;;;;;;;4.09;72.11;98285.56;5074081;28;19953;-75
2023/11/13 15:00:14;;;;;;;;;;;;;;;4.03;72.79;98283.91;5089896;28;20456;-74
2023/11/13 15:02:40;;;;;;;;;;;;;;;3.98;72.76;98301.09;5088962;28;19924;-73
2023/11/13 15:05:06;;;;;;;;;;;;;;;3.91;72.57;98290.81;5088989;28;19930;-73
2023/11/13 15:07:32;;;;;;;;;;;;;;;3.87;73.23;98296.84;5058170;28;20021;-65
2023/11/13 15:09:59;;;;;;;;;;;;;;;3.83;73.05;98292.59;5088421;28;19932;-69
2023/11/13 15:12:27;;;;;;;;;;;;;;;3.79;72.81;98300.31;5089227;28;20053;-68
2023/11/13 15:14:54;;;;;;;;;;;;;;;3.74;73.17;98302.94;5124501;27;19920;-70
2023/11/13 15:17:19;;;;;;;;;;;;;;;3.69;73.01;98300.41;5086967;28;20329;-69
2023/11/13 15:19:45;;;;;;;;;;;;;;;3.65;73.27;98306.41;5073271;28;20342;-67
2023/11/13 15:22:11;;;;;;;;;;;;;;;3.58;72.65;98303.03;5089075;28;19979;-69
2023/11/13 15:24:37;;;;;;;;;;;;;;;3.54;73.05;98300.44;5124768;27;20395;-70
2023/11/13 15:27:03;;;;;;;;;;;;;;;3.51;73.02;98306.47;5058086;28;20488;-68
2023/11/13 15:29:29;;;;;;;;;;;;;;;3.47;72.97;98313.34;5087897;28;19976;-68
2023/11/13 15:31:55;;;;;;;;;;;;;;;3.46;73.21;98316.78;5060987;28;20461;-69
2023/11/13 15:34:24;;;;;;;;;;;;;;;3.47;73.92;98321.06;5088718;28;19920;-73
2023/11/13 15:36:50;;;;;;;;;;;;;;;3.45;73.45;98324.50;5109739;27;19924;-70
2023/11/13 15:39:16;;;;;;;;;;;;;;;3.46;73.48;98314.22;5091909;28;19928;-69
2023/11/13 15:41:41;;;;;;;;;;;;;;;3.48;73.27;98301.34;5055604;28;19924;-67
2023/11/13 15:44:11;;;;;;;;;;;;;;;3.50;73.94;98315.03;5091251;28;19924;-70
2023/11/13 15:46:37;;;;;;;;;;;;;;;3.58;73.48;98308.16;5109497;27;19923;-70
2023/11/13 15:49:03;;;;;;;;;;;;;;;3.72;74.00;98315.81;5087884;28;19924;-68
2023/11/13 15:51:29;;;;;;;;;;;;;;;3.85;73.83;98313.16;5089318;28;19950;-70
2023/11/13 15:53:54;;;;;;;;;;;;;;;3.94;74.21;98320.84;5089111;28;19924;-71
2023/11/13 15:56:22;;;;;;;;;;;;;;;4.00;73.53;98314.81;5096069;28;19934;-71
2023/11/13 15:58:48;;;;;;;;;;;;;;;3.99;73.13;98321.66;5090156;28;20010;-70
2023/11/13 16:01:14;;;;;;;;;;;;;;;3.96;73.92;98315.69;5071726;28;19964;-71
2023/11/13 16:03:41;;;;;;;;;;;;;;;3.91;73.50;98318.28;5074518;28;19975;-70
2023/11/13 16:06:07;;;;;;;;;;;;;;;3.89;74.05;98318.28;5085845;28;19926;-69